Silver Lake, New Jersey
Current Conditions -  °F | °C
As of 5:53 PM on Thursday 27 Nov 2014 (Local Time) from KFWN Reporting Station
Overcast Overcast  
Wind Chill:   Ceiling: 3500
Heat Index:   Visibility: 10mi
Dew Point: -3°   Wind: 3mph
Humidity: 73%   Direction: 320°NW
Pressure: 30.02"   Gusts: NA
Location:  41.1122°N, 74.4998°W
Report Text: KFWN 272253Z AUTO 32003KT 10SM OVC035 01/M03 A3002 RMK AO2 SLP169 T00111033
Loading
Personal Weather Stations






























Interactive Weather Map New forecast layout! Learn more

10-Day Weather Forecast

Advertisements
Track Severe Weather on mobile